Time;durP1;ratioP1;P1;durP2;ratioP2;P2;SDS_P1;SDS_P2;PMS_P1;PMS_P2;Temp;Humidity;BMP_temperature;BMP_pressure;BME280_temperature;BME280_humidity;BME280_pressure;Samples;Min_cycle;Max_cycle;Signal;HPM_P1;HPM_P2
2022/03/01 00:01:33;;;;;;;16.98;3.10;;;;;;;22.83;51.39;101212.88;7309097;19;158548;-41
2022/03/01 00:03:59;;;;;;;16.38;2.83;;;;;;;22.75;51.73;101211.72;7311062;19;131328;-39
2022/03/01 00:06:24;;;;;;;26.35;3.92;;;;;;;22.68;51.85;101216.56;7309411;19;154570;-39
2022/03/01 00:08:49;;;;;;;8.10;2.33;;;;;;;22.53;52.10;101201.06;7311335;19;153317;-40
2022/03/01 00:11:14;;;;;;;19.80;3.38;;;;;;;22.59;52.76;101211.13;7310728;19;148599;-40
2022/03/01 00:13:40;;;;;;;22.65;3.65;;;;;;;22.51;53.15;101202.94;7308311;19;159403;-40
2022/03/01 00:16:06;;;;;;;19.30;3.78;;;;;;;22.41;52.95;101200.09;7311806;19;129521;-40
2022/03/01 00:18:31;;;;;;;13.10;2.87;;;;;;;22.46;52.98;101207.66;7312700;19;129298;-40
2022/03/01 00:20:56;;;;;;;15.03;2.70;;;;;;;22.46;53.27;101215.53;7309146;19;159097;-41
2022/03/01 00:23:22;;;;;;;14.05;2.88;;;;;;;22.41;53.77;101212.38;7309933;19;129222;-40
2022/03/01 00:25:47;;;;;;;27.25;3.75;;;;;;;22.35;53.64;101183.97;7311736;19;129258;-39
2022/03/01 00:28:12;;;;;;;25.52;4.28;;;;;;;22.43;54.31;101205.25;7308764;19;154057;-40
2022/03/01 00:30:37;;;;;;;20.10;3.35;;;;;;;22.47;54.81;101202.31;7310291;19;158459;-40
2022/03/01 00:33:03;;;;;;;25.50;3.65;;;;;;;22.45;54.13;101198.94;7307394;19;159494;-41
2022/03/01 00:35:28;;;;;;;21.60;3.53;;;;;;;22.48;54.97;101193.50;7309694;19;154519;-41
2022/03/01 00:37:53;;;;;;;15.82;2.95;;;;;;;22.47;54.01;101190.97;7304431;19;154214;-40
2022/03/01 00:40:18;;;;;;;19.88;3.00;;;;;;;22.49;54.78;101189.09;7309279;19;161249;-39
2022/03/01 00:42:44;;;;;;;21.40;3.37;;;;;;;22.53;53.81;101178.31;7303710;19;158459;-40
2022/03/01 00:45:10;;;;;;;27.80;4.43;;;;;;;22.54;54.74;101184.41;7308557;19;154367;-39
2022/03/01 00:47:35;;;;;;;13.23;3.03;;;;;;;22.56;55.00;101179.91;7308436;19;129217;-40
2022/03/01 00:50:00;;;;;;;12.95;2.55;;;;;;;22.53;55.13;101180.09;7309066;19;160295;-40
2022/03/01 00:52:25;;;;;;;35.87;4.83;;;;;;;22.35;54.39;101157.75;7309383;19;159943;-37
2022/03/01 00:54:50;;;;;;;14.50;2.72;;;;;;;22.37;54.14;101179.44;7306964;19;154512;-40
2022/03/01 00:57:16;;;;;;;25.45;4.47;;;;;;;22.37;53.74;101176.84;7308820;19;154435;-40
2022/03/01 00:59:41;;;;;;;26.02;3.70;;;;;;;22.42;53.44;101175.59;7307408;19;159230;-40
2022/03/01 01:02:06;;;;;;;13.18;2.45;;;;;;;22.47;52.64;101170.84;7307525;19;158864;-40
2022/03/01 01:04:31;;;;;;;16.80;2.80;;;;;;;22.61;52.12;101172.56;7305516;19;155002;-41
2022/03/01 01:06:57;;;;;;;27.33;4.63;;;;;;;22.71;51.74;101170.97;7307392;19;155238;-40
2022/03/01 01:09:22;;;;;;;25.60;3.72;;;;;;;22.86;51.40;101167.22;7307532;19;158399;-39
2022/03/01 01:11:47;;;;;;;18.63;3.38;;;;;;;23.00;51.19;101165.31;7308179;19;159124;-39
2022/03/01 01:14:13;;;;;;;18.90;2.90;;;;;;;23.15;51.14;101171.22;7305494;19;156221;-40
2022/03/01 01:16:38;;;;;;;14.88;2.88;;;;;;;23.31;49.94;101163.94;7308416;19;154528;-40
2022/03/01 01:19:04;;;;;;;15.30;2.67;;;;;;;23.42;49.98;101156.09;7307502;19;158361;-40
2022/03/01 01:22:39;;;;;;;18.83;2.93;;;;;;;23.44;50.10;101163.84;7310655;19;129205;-40
2022/03/01 01:24:15;;;;;;;23.08;3.72;;;;;;;23.41;50.17;101164.09;7303700;19;130562;-39
2022/03/01 01:26:41;;;;;;;17.58;2.95;;;;;;;23.31;50.13;101152.59;7310705;19;129897;-40
2022/03/01 01:29:06;;;;;;;16.10;2.75;;;;;;;23.23;50.42;101156.59;7307869;19;129315;-41
2022/03/01 01:31:31;;;;;;;24.43;3.87;;;;;;;23.17;50.16;101161.47;7307831;19;131292;-40
2022/03/01 01:33:56;;;;;;;20.27;3.60;;;;;;;23.07;50.51;101166.50;7304370;19;154682;-41
2022/03/01 01:36:25;;;;;;;23.25;3.60;;;;;;;22.98;51.03;101161.09;7306363;19;149224;-40
2022/03/01 01:38:50;;;;;;;25.70;3.80;;;;;;;22.89;51.39;101167.03;7308553;19;130547;-40
2022/03/01 01:41:16;;;;;;;21.20;3.50;;;;;;;22.82;51.59;101163.16;7305995;19;129377;-40
2022/03/01 01:43:41;;;;;;;32.97;5.10;;;;;;;22.74;52.01;101162.88;7303007;19;153222;-41
2022/03/01 01:46:06;;;;;;;19.90;3.37;;;;;;;22.68;52.37;101165.91;7306557;19;153910;-40
2022/03/01 01:48:31;;;;;;;7.70;2.05;;;;;;;22.58;52.89;101159.63;7312676;19;158630;-40
2022/03/01 01:50:56;;;;;;;19.60;3.15;;;;;;;22.51;52.61;101155.75;7313706;19;159075;-41
2022/03/01 01:53:22;;;;;;;28.30;4.05;;;;;;;22.46;52.77;101157.88;7311711;19;154466;-40
2022/03/01 01:55:47;;;;;;;19.55;3.53;;;;;;;22.44;53.34;101159.75;7313889;19;130580;-40
2022/03/01 01:58:12;;;;;;;16.42;2.78;;;;;;;22.43;53.46;101163.31;7313413;19;159041;-40
2022/03/01 02:00:39;;;;;;;17.05;3.05;;;;;;;22.36;54.28;101141.09;7313777;19;157256;-38
2022/03/01 02:03:04;;;;;;;18.88;2.88;;;;;;;22.34;54.48;101143.00;7313098;19;129176;-40
2022/03/01 02:05:29;;;;;;;19.35;3.08;;;;;;;22.41;54.77;101165.22;7314131;19;129497;-41
2022/03/01 02:07:55;;;;;;;18.98;3.22;;;;;;;22.42;55.03;101161.63;7313905;19;130591;-40
2022/03/01 02:10:21;;;;;;;15.43;2.70;;;;;;;22.46;54.41;101171.78;7315506;19;131032;-38
2022/03/01 02:12:47;;;;;;;17.97;3.00;;;;;;;22.45;54.56;101164.88;7314650;19;131031;-40
2022/03/01 02:15:14;;;;;;;33.67;5.55;;;;;;;22.47;54.55;101164.78;7314197;19;130301;-40
2022/03/01 02:17:43;;;;;;;32.92;5.25;;;;;;;22.41;53.94;101149.50;7314098;19;131000;-41
2022/03/01 02:20:17;;;;;;;24.65;3.65;;;;;;;22.49;55.07;101162.88;7314458;19;130771;-40
2022/03/01 02:22:42;;;;;;;20.73;3.92;;;;;;;22.41;54.79;101157.34;7313530;19;129972;-41
2022/03/01 02:25:08;;;;;;;26.83;4.50;;;;;;;22.36;54.13;101154.22;7312207;19;130139;-40
2022/03/01 02:27:34;;;;;;;17.57;2.87;;;;;;;22.35;53.81;101157.75;7313688;19;129568;-41
2022/03/01 02:29:59;;;;;;;17.67;2.80;;;;;;;22.39;53.39;101157.47;7313982;19;129989;-40
2022/03/01 02:32:24;;;;;;;26.02;3.88;;;;;;;22.47;52.78;101151.66;7312774;19;143372;-41
2022/03/01 02:34:50;;;;;;;10.23;2.23;;;;;;;22.59;52.67;101151.66;7312600;19;154815;-40
2022/03/01 02:37:15;;;;;;;33.30;5.15;;;;;;;22.61;52.17;101147.16;7311081;19;158396;-40
2022/03/01 02:39:40;;;;;;;16.60;2.90;;;;;;;22.84;51.92;101153.41;7313883;19;129660;-40
2022/03/01 02:42:06;;;;;;;16.50;2.97;;;;;;;23.01;51.07;101151.22;7311923;19;154863;-40
2022/03/01 02:44:31;;;;;;;24.13;3.80;;;;;;;23.13;50.65;101144.25;7309940;19;145439;-40
2022/03/01 02:46:56;;;;;;;16.92;2.97;;;;;;;23.20;50.95;101140.25;7311398;19;154623;-38
2022/03/01 02:49:22;;;;;;;28.85;4.32;;;;;;;23.35;50.49;101154.03;7311890;19;159071;-39
2022/03/01 02:51:47;;;;;;;29.95;4.50;;;;;;;23.48;50.23;101144.31;7311219;19;154601;-39
2022/03/01 02:54:12;;;;;;;23.48;3.58;;;;;;;23.54;49.55;101147.31;7310209;19;154106;-39
2022/03/01 02:56:39;;;;;;;15.32;2.85;;;;;;;23.48;50.00;101142.53;7310936;19;158320;-40
2022/03/01 02:59:05;;;;;;;19.33;3.08;;;;;;;23.43;49.71;101144.66;7312644;19;130290;-38
2022/03/01 03:01:30;;;;;;;21.70;3.25;;;;;;;23.33;49.85;101138.41;7313695;19;129697;-39
2022/03/01 03:03:56;;;;;;;23.00;3.78;;;;;;;23.19;50.32;101135.91;7308723;19;147497;-38
2022/03/01 03:06:21;;;;;;;21.57;3.50;;;;;;;23.17;50.98;101150.97;7312429;19;129854;-38
2022/03/01 03:08:47;;;;;;;28.70;4.13;;;;;;;23.08;50.74;101146.38;7310591;19;157350;-39
2022/03/01 03:11:12;;;;;;;14.70;2.97;;;;;;;22.98;51.37;101145.38;7313744;19;129655;-40
2022/03/01 03:13:38;;;;;;;23.53;4.27;;;;;;;22.90;51.03;101142.47;7308222;19;154237;-40
2022/03/01 03:16:04;;;;;;;15.45;2.58;;;;;;;22.80;51.59;101141.44;7312381;19;130140;-37
2022/03/01 03:18:30;;;;;;;23.70;3.88;;;;;;;22.68;52.28;101131.81;7312737;19;130961;-37
2022/03/01 03:20:56;;;;;;;22.07;3.53;;;;;;;22.54;52.82;101113.63;7311721;19;130033;-38
2022/03/01 03:23:21;;;;;;;23.23;3.37;;;;;;;22.57;52.48;101144.88;7308799;19;155233;-38
2022/03/01 03:25:46;;;;;;;18.38;2.95;;;;;;;22.52;52.26;101137.31;7309855;19;158380;-41
2022/03/01 03:28:11;;;;;;;25.13;3.63;;;;;;;22.47;53.37;101138.56;7310544;19;158546;-38
2022/03/01 03:30:37;;;;;;;22.60;3.88;;;;;;;22.42;53.18;101136.28;7310418;19;155102;-38
2022/03/01 03:33:02;;;;;;;18.23;3.13;;;;;;;22.43;53.92;101140.56;7309048;19;154097;-38
2022/03/01 03:35:27;;;;;;;26.30;3.65;;;;;;;22.39;53.70;101133.03;7309831;19;157088;-38
2022/03/01 03:37:52;;;;;;;18.92;3.33;;;;;;;22.34;54.16;101117.63;7310655;19;158645;-39
2022/03/01 03:40:18;;;;;;;8.23;1.80;;;;;;;22.36;53.94;101120.97;7310081;19;155474;-37
2022/03/01 03:42:44;;;;;;;35.00;5.45;;;;;;;22.31;54.07;101128.34;7307595;19;153087;-39
2022/03/01 03:45:10;;;;;;;34.92;5.22;;;;;;;22.33;54.36;101125.59;7309917;19;130481;-39
2022/03/01 03:47:36;;;;;;;24.88;3.85;;;;;;;22.36;53.17;101125.38;7311787;19;130111;-41
2022/03/01 03:50:01;;;;;;;16.85;2.50;;;;;;;22.42;53.68;101124.94;7310748;19;148675;-41
2022/03/01 03:52:26;;;;;;;15.15;2.85;;;;;;;22.54;52.68;101121.50;7309379;19;153493;-39
2022/03/01 03:54:51;;;;;;;27.53;4.13;;;;;;;22.87;51.87;101126.94;7310081;19;159280;-40
2022/03/01 03:57:17;;;;;;;19.85;3.15;;;;;;;23.31;50.36;101121.94;7309182;19;145081;-40
2022/03/01 03:59:42;;;;;;;17.80;3.17;;;;;;;23.70;49.52;101118.13;7310470;19;154566;-40
2022/03/01 04:02:08;;;;;;;20.95;3.05;;;;;;;24.10;48.21;101117.59;7309999;19;129500;-40
2022/03/01 04:04:34;;;;;;;20.50;3.42;;;;;;;24.42;47.79;101122.97;7305843;19;159177;-40
2022/03/01 04:06:59;;;;;;;26.23;3.87;;;;;;;24.72;47.02;101125.00;7310591;19;130481;-41
2022/03/01 04:09:25;;;;;;;23.55;3.25;;;;;;;24.93;46.49;101120.63;7308587;19;129976;-41
2022/03/01 04:11:51;;;;;;;19.85;2.97;;;;;;;25.09;45.59;101128.97;7311516;19;129414;-40
2022/03/01 04:14:17;;;;;;;16.77;2.72;;;;;;;25.24;45.71;101110.09;7307529;19;130326;-40
2022/03/01 04:16:44;;;;;;;19.23;3.15;;;;;;;25.29;45.22;101107.91;7310550;19;130384;-40
2022/03/01 04:19:10;;;;;;;20.90;3.13;;;;;;;25.45;44.91;101120.69;7310872;19;128824;-40
2022/03/01 04:21:36;;;;;;;23.40;3.60;;;;;;;25.51;44.93;101120.16;7310770;19;129442;-41
2022/03/01 04:24:03;;;;;;;20.57;3.33;;;;;;;25.52;44.92;101112.13;7308795;19;130200;-41
2022/03/01 04:26:28;;;;;;;20.20;3.00;;;;;;;25.56;44.98;101110.09;7311108;19;130434;-43
2022/03/01 04:28:54;;;;;;;17.73;3.00;;;;;;;25.54;44.44;101110.22;7309170;19;129234;-39
2022/03/01 04:31:20;;;;;;;22.80;3.53;;;;;;;25.55;44.87;101105.78;7311127;19;130131;-41
2022/03/01 04:33:46;;;;;;;25.83;3.65;;;;;;;25.55;44.80;101101.34;7307626;19;130224;-40
2022/03/01 04:36:11;;;;;;;22.65;3.60;;;;;;;25.56;44.59;101113.56;7309672;19;134021;-40
2022/03/01 04:38:37;;;;;;;22.13;3.33;;;;;;;25.56;44.48;101107.44;7312567;19;130533;-38
2022/03/01 04:41:02;;;;;;;13.40;2.53;;;;;;;25.51;45.27;101104.38;7309384;19;129024;-40
2022/03/01 04:43:28;;;;;;;23.33;3.83;;;;;;;25.44;45.45;101097.94;7307318;19;129742;-40
2022/03/01 04:45:53;;;;;;;19.75;3.05;;;;;;;25.44;44.77;101100.56;7308816;19;158860;-40
2022/03/01 04:48:19;;;;;;;24.50;3.72;;;;;;;25.33;45.04;101100.59;7308556;19;155189;-39
2022/03/01 04:50:44;;;;;;;20.88;3.40;;;;;;;25.25;45.57;101103.03;7310124;19;129379;-41
2022/03/01 04:53:11;;;;;;;28.57;3.93;;;;;;;25.13;45.96;101101.41;7305051;19;159779;-39
2022/03/01 04:55:36;;;;;;;33.28;4.50;;;;;;;25.00;45.84;101113.91;7309345;19;129716;-40
2022/03/01 04:58:02;;;;;;;9.03;2.27;;;;;;;24.82;46.88;101102.25;7309361;19;129113;-38
2022/03/01 05:00:27;;;;;;;17.43;2.57;;;;;;;24.66;47.31;101101.78;7310096;19;130401;-39
2022/03/01 05:02:52;;;;;;;22.23;3.17;;;;;;;24.53;47.72;101106.34;7306304;19;159015;-39
2022/03/01 05:05:18;;;;;;;24.30;3.73;;;;;;;24.37;47.67;101110.19;7305411;19;151063;-40
2022/03/01 05:07:46;;;;;;;24.17;3.60;;;;;;;24.23;47.64;101107.78;7306000;19;153208;-40
2022/03/01 05:10:13;;;;;;;24.73;3.85;;;;;;;24.06;48.76;101110.94;7307225;19;128941;-38
2022/03/01 05:12:52;;;;;;;21.55;3.22;;;;;;;23.93;48.86;101109.31;7308006;19;130556;-40
2022/03/01 05:15:18;;;;;;;35.22;5.50;;;;;;;23.81;49.18;101108.47;7306244;19;130363;-39
2022/03/01 05:17:44;;;;;;;32.08;4.57;;;;;;;23.72;49.55;101114.41;7308215;19;131360;-40
2022/03/01 05:20:11;;;;;;;22.92;3.45;;;;;;;23.56;49.33;101103.41;7307639;19;130492;-38
2022/03/01 05:22:37;;;;;;;22.25;3.28;;;;;;;23.51;50.13;101108.16;7309671;19;130874;-40
2022/03/01 05:25:04;;;;;;;26.70;3.40;;;;;;;23.43;50.14;101102.66;7314531;19;130633;-40
2022/03/01 05:27:30;;;;;;;31.08;4.20;;;;;;;23.33;50.31;101109.53;7313489;19;129423;-40
2022/03/01 05:29:56;;;;;;;16.77;2.45;;;;;;;23.30;51.16;101103.69;7316307;19;129045;-40
2022/03/01 05:32:21;;;;;;;27.00;4.07;;;;;;;23.18;50.75;101101.00;7314269;19;129533;-40
2022/03/01 05:34:46;;;;;;;21.30;3.53;;;;;;;23.16;51.98;101112.53;7315101;19;130309;-44
2022/03/01 05:37:12;;;;;;;17.52;2.78;;;;;;;23.12;51.64;101108.47;7313486;19;129996;-38
2022/03/01 05:39:37;;;;;;;26.23;3.75;;;;;;;23.03;51.74;101106.53;7313653;19;138061;-40
2022/03/01 05:42:02;;;;;;;14.75;2.60;;;;;;;22.99;51.81;101110.34;7314050;19;129956;-40
2022/03/01 05:44:28;;;;;;;9.60;2.13;;;;;;;22.95;52.36;101108.88;7309582;19;129139;-40
2022/03/01 05:46:53;;;;;;;31.80;4.75;;;;;;;22.96;52.69;101111.38;7310613;19;134144;-39
2022/03/01 05:49:19;;;;;;;21.65;3.15;;;;;;;22.97;52.78;101117.47;7315016;19;129235;-41
2022/03/01 05:51:44;;;;;;;15.18;2.67;;;;;;;22.91;53.52;101112.66;7312116;19;130863;-38
2022/03/01 05:54:09;;;;;;;25.98;3.63;;;;;;;22.77;53.21;101097.94;7310225;19;158355;-39
2022/03/01 05:56:35;;;;;;;35.97;4.75;;;;;;;22.82;52.73;101113.34;7310510;19;150013;-42
2022/03/01 05:59:00;;;;;;;29.48;3.83;;;;;;;22.79;53.43;101108.31;7312813;19;129198;-41
2022/03/01 06:01:25;;;;;;;24.98;3.88;;;;;;;22.72;52.93;101105.31;7311584;19;158735;-41
2022/03/01 06:03:50;;;;;;;17.42;2.75;;;;;;;22.79;53.20;101118.81;7310911;19;131578;-40
2022/03/01 06:06:16;;;;;;;29.10;3.53;;;;;;;22.76;53.98;101119.00;7313698;19;154698;-41
2022/03/01 06:08:41;;;;;;;30.33;4.38;;;;;;;22.63;52.91;101097.22;7310756;19;150292;-41
2022/03/01 06:11:06;;;;;;;13.90;2.35;;;;;;;22.80;52.70;101120.47;7311254;19;158638;-40
2022/03/01 06:13:31;;;;;;;22.08;3.55;;;;;;;22.80;53.03;101121.31;7310241;19;158855;-39
2022/03/01 06:15:58;;;;;;;25.43;3.60;;;;;;;22.84;52.55;101121.94;7312518;19;152547;-40
2022/03/01 06:18:23;;;;;;;;;;;;;;;22.90;51.93;101119.69;7313295;19;130284;-39
2022/03/01 06:20:49;;;;;;;21.27;3.37;;;;;;;23.02;52.11;101120.59;7313712;19;129157;-38
2022/03/01 06:23:14;;;;;;;31.60;4.63;;;;;;;23.11;51.01;101119.91;7309609;19;130324;-40
2022/03/01 06:25:42;;;;;;;20.97;3.17;;;;;;;23.17;51.46;101119.47;7314051;19;129356;-40
2022/03/01 06:28:08;;;;;;;20.52;2.85;;;;;;;23.19;50.64;101107.06;7315058;19;129313;-40
2022/03/01 06:30:33;;;;;;;23.55;3.47;;;;;;;23.33;51.02;101120.03;7313220;19;131724;-40
2022/03/01 06:32:58;;;;;;;15.63;2.15;;;;;;;23.42;50.44;101121.97;7310833;19;158795;-40
2022/03/01 06:35:23;;;;;;;16.90;2.70;;;;;;;23.43;50.42;101126.28;7311431;19;156588;-41
2022/03/01 06:37:49;;;;;;;20.93;2.93;;;;;;;23.42;50.08;101121.97;7314549;19;129101;-40
2022/03/01 06:40:14;;;;;;;23.38;3.22;;;;;;;23.39;50.24;101119.56;7314085;19;130472;-40
2022/03/01 06:42:40;;;;;;;23.48;3.35;;;;;;;23.39;50.81;101114.31;7311677;19;129197;-41
2022/03/01 06:45:07;;;;;;;28.50;4.30;;;;;;;23.40;50.41;101118.66;7314173;19;129180;-40
2022/03/01 06:47:32;;;;;;;;;;;;;;;23.39;50.36;101113.50;7314328;19;130077;-41
2022/03/01 06:49:57;;;;;;;25.13;3.50;;;;;;;23.31;50.83;101103.56;7313784;19;130123;-40
2022/03/01 06:52:23;;;;;;;27.60;3.35;;;;;;;23.36;50.38;101114.56;7311569;19;130341;-38
2022/03/01 06:54:48;;;;;;;16.98;2.63;;;;;;;23.32;51.09;101113.09;7312265;19;129487;-40
2022/03/01 06:57:13;;;;;;;20.77;2.97;;;;;;;23.28;50.98;101111.66;7311869;19;129183;-39
2022/03/01 06:59:39;;;;;;;22.47;3.37;;;;;;;23.27;51.16;101109.16;7309996;19;158837;-40
2022/03/01 07:02:04;;;;;;;10.35;2.03;;;;;;;23.27;51.30;101107.34;7311836;19;158676;-40
2022/03/01 07:04:29;;;;;;;23.77;3.67;;;;;;;23.31;50.94;101106.19;7309070;19;129071;-39
2022/03/01 07:06:55;;;;;;;18.37;2.87;;;;;;;23.32;50.78;101110.47;7311537;19;128896;-40
2022/03/01 07:09:21;;;;;;;20.20;3.00;;;;;;;23.29;50.81;101102.84;7309957;19;158447;-40
2022/03/01 07:11:46;;;;;;;27.55;3.53;;;;;;;23.40;50.90;101113.41;7310604;19;131192;-40
2022/03/01 07:14:12;;;;;;;23.97;3.40;;;;;;;23.37;51.10;101089.97;7306612;19;154672;-40
2022/03/01 07:16:37;;;;;;;24.77;3.70;;;;;;;23.51;50.65;101112.56;7308525;19;154098;-41
2022/03/01 07:19:02;;;;;;;21.73;3.20;;;;;;;23.58;50.11;101105.91;7309668;19;153115;-40
2022/03/01 07:21:27;;;;;;;17.35;2.88;;;;;;;23.67;50.56;101107.84;7309499;19;159148;-39
2022/03/01 07:23:53;;;;;;;20.63;2.92;;;;;;;23.77;50.10;101111.44;7307071;19;129099;-39
2022/03/01 07:26:18;;;;;;;18.45;2.65;;;;;;;23.79;50.77;101112.16;7308992;19;146260;-40
2022/03/01 07:28:43;;;;;;;23.93;3.37;;;;;;;23.83;50.18;101113.59;7310175;19;130697;-40
2022/03/01 07:31:09;;;;;;;28.80;3.97;;;;;;;23.88;50.31;101108.84;7309861;19;148374;-39
2022/03/01 07:33:34;;;;;;;24.17;3.55;;;;;;;23.97;50.30;101111.59;7308565;19;139843;-38
2022/03/01 07:36:00;;;;;;;17.50;2.80;;;;;;;24.00;50.39;101116.63;7308410;19;154541;-40
2022/03/01 07:38:25;;;;;;;22.53;3.20;;;;;;;24.02;49.67;101109.47;7310683;19;130758;-40
2022/03/01 07:40:50;;;;;;;19.40;2.75;;;;;;;24.08;50.31;101108.19;7310877;19;130335;-40
2022/03/01 07:43:16;;;;;;;38.00;5.55;;;;;;;24.14;49.61;101118.19;7306597;19;155067;-40
2022/03/01 07:45:41;;;;;;;26.77;4.05;;;;;;;24.13;49.49;101096.34;7306234;19;144761;-40
2022/03/01 07:48:07;;;;;;;21.30;3.03;;;;;;;24.17;49.88;101107.44;7308505;19;129262;-40
2022/03/01 07:50:32;;;;;;;19.73;3.20;;;;;;;24.10;48.75;101109.72;7310091;19;130450;-40
2022/03/01 07:52:57;;;;;;;20.47;4.73;;;;;;;23.89;44.42;101092.13;7308823;19;129162;-40
2022/03/01 07:55:23;;;;;;;31.92;5.18;;;;;;;23.79;44.44;101094.63;7305760;19;130718;-40
2022/03/01 07:57:49;;;;;;;28.67;4.80;;;;;;;23.62;44.94;101089.81;7309198;19;131419;-41
2022/03/01 08:00:15;;;;;;;40.37;7.00;;;;;;;23.53;45.93;101087.03;7306655;19;158403;-41
2022/03/01 08:02:41;;;;;;;31.60;5.18;;;;;;;23.55;47.06;101099.09;7307206;19;130288;-40
2022/03/01 08:05:07;;;;;;;39.40;6.57;;;;;;;23.58;47.63;101087.53;7308219;19;129505;-40
2022/03/01 08:07:33;;;;;;;25.50;4.95;;;;;;;23.57;47.54;101091.94;7308538;19;131130;-41
2022/03/01 08:09:59;;;;;;;26.10;4.47;;;;;;;23.61;47.76;101088.16;7310320;19;130280;-40
2022/03/01 08:12:24;;;;;;;30.00;4.93;;;;;;;23.66;48.54;101079.91;7308636;19;129117;-40
2022/03/01 08:14:49;;;;;;;24.63;4.57;;;;;;;23.71;48.81;101088.28;7306070;19;153670;-37
2022/03/01 08:17:15;;;;;;;26.42;4.88;;;;;;;23.73;48.36;101089.84;7304180;19;137737;-40
2022/03/01 08:19:40;;;;;;;28.30;4.75;;;;;;;23.75;49.42;101085.28;7309087;19;143296;-40
2022/03/01 08:22:05;;;;;;;25.48;4.50;;;;;;;23.82;49.09;101076.00;7307839;19;154340;-41
2022/03/01 08:24:31;;;;;;;26.25;4.80;;;;;;;23.81;48.62;101068.22;7304369;19;129205;-39
2022/03/01 08:26:56;;;;;;;28.67;5.07;;;;;;;23.84;49.38;101087.22;7307183;19;129429;-40
2022/03/01 08:29:21;;;;;;;31.40;5.22;;;;;;;23.74;49.02;101067.88;7308070;19;132477;-41
2022/03/01 08:31:47;;;;;;;24.52;4.03;;;;;;;23.83;49.50;101082.09;7307503;19;154479;-40
2022/03/01 08:34:12;;;;;;;25.55;4.40;;;;;;;23.80;49.42;101092.84;7305882;19;129591;-40
2022/03/01 08:36:38;;;;;;;34.63;5.65;;;;;;;23.74;49.76;101088.03;7306485;19;130288;-39
2022/03/01 08:39:03;;;;;;;23.85;4.32;;;;;;;23.71;49.95;101088.28;7306256;19;143477;-40
2022/03/01 08:41:28;;;;;;;26.05;4.22;;;;;;;23.68;49.78;101091.13;7307896;19;130757;-40
2022/03/01 08:43:54;;;;;;;27.50;4.83;;;;;;;23.63;50.11;101080.16;7304014;19;154152;-41
2022/03/01 08:46:20;;;;;;;24.58;4.18;;;;;;;23.69;50.77;101080.50;7305123;19;150927;-40
2022/03/01 08:48:45;;;;;;;31.57;4.70;;;;;;;23.68;50.26;101073.59;7309280;19;130778;-40
2022/03/01 08:51:12;;;;;;;20.67;3.85;;;;;;;23.71;50.26;101068.09;7308435;19;129087;-40
2022/03/01 08:53:38;;;;;;;24.50;4.10;;;;;;;23.77;50.08;101075.50;7306297;19;129421;-41
2022/03/01 08:56:04;;;;;;;27.95;4.28;;;;;;;23.77;50.27;101066.78;7306396;19;131114;-41
2022/03/01 08:58:29;;;;;;;19.87;4.20;;;;;;;23.86;50.47;101077.44;7306167;19;130448;-41
2022/03/01 09:00:54;;;;;;;21.77;3.63;;;;;;;23.86;49.98;101068.72;7307172;19;146389;-41
2022/03/01 09:03:20;;;;;;;20.98;3.65;;;;;;;23.93;50.37;101073.34;7304326;19;153986;-40
2022/03/01 09:05:45;;;;;;;32.88;4.80;;;;;;;23.93;50.09;101073.34;7305394;19;158579;-38
2022/03/01 09:08:12;;;;;;;21.20;4.00;;;;;;;23.94;49.78;101069.81;7304991;19;159639;-41
2022/03/01 09:10:39;;;;;;;21.02;3.95;;;;;;;23.93;50.14;101067.28;7308564;19;129094;-40
2022/03/01 09:13:04;;;;;;;33.20;5.72;;;;;;;23.85;50.53;101060.00;7303369;19;129059;-41
2022/03/01 09:15:32;;;;;;;33.40;5.57;;;;;;;23.80;50.70;101056.88;7305446;19;142123;-40
2022/03/01 09:17:58;;;;;;;25.95;3.97;;;;;;;23.74;51.15;101046.84;7302584;19;131009;-37
2022/03/01 09:20:24;;;;;;;14.90;3.17;;;;;;;23.68;51.36;101051.75;7307358;19;129936;-45
2022/03/01 09:22:50;;;;;;;24.48;4.13;;;;;;;23.51;51.37;101026.78;7304866;19;130412;-41
2022/03/01 09:25:15;;;;;;;48.33;8.00;;;;;;;23.57;51.62;101028.94;7302671;19;130253;-40
2022/03/01 09:27:41;;;;;;;25.95;4.95;;;;;;;23.61;51.58;101033.00;7304093;19;129797;-41
2022/03/01 09:30:07;;;;;;;30.27;4.45;;;;;;;23.58;51.68;101033.25;7305822;19;140635;-40
2022/03/01 09:32:32;;;;;;;25.77;4.30;;;;;;;23.52;51.67;101025.00;7304100;19;129678;-40
2022/03/01 09:34:58;;;;;;;12.32;2.72;;;;;;;23.52;51.62;101025.81;7302142;19;158581;-37
2022/03/01 09:37:23;;;;;;;25.53;4.27;;;;;;;23.53;52.08;101026.66;7304633;19;130411;-41
2022/03/01 09:39:49;;;;;;;16.58;3.10;;;;;;;23.52;51.84;101017.94;7307587;19;129181;-41
2022/03/01 09:42:14;;;;;;;28.27;4.50;;;;;;;23.55;51.94;101020.31;7306313;19;128971;-39
2022/03/01 09:44:41;;;;;;;23.08;4.18;;;;;;;23.50;51.85;101005.91;7303242;19;129026;-39
2022/03/01 09:47:06;;;;;;;23.92;3.55;;;;;;;23.57;51.81;101013.19;7304941;19;131931;-40
2022/03/01 09:49:31;;;;;;;23.45;4.10;;;;;;;23.59;51.60;101010.44;7305449;19;153639;-40
2022/03/01 09:51:57;;;;;;;14.68;2.72;;;;;;;23.55;52.31;101011.63;7306183;19;154094;-41
2022/03/01 09:54:25;;;;;;;26.88;3.95;;;;;;;23.49;51.80;101010.31;7304262;19;129926;-40
2022/03/01 09:56:50;;;;;;;29.73;5.03;;;;;;;23.47;51.88;100995.66;7303799;19;130289;-39
2022/03/01 09:59:16;;;;;;;27.60;4.57;;;;;;;23.40;53.00;101003.16;7306615;19;129288;-40
2022/03/01 10:01:52;;;;;;;22.42;3.63;;;;;;;23.37;52.82;100995.50;7306937;19;129593;-40
2022/03/01 10:04:18;;;;;;;20.83;3.60;;;;;;;23.33;52.65;100996.69;7301497;19;131247;-40
2022/03/01 10:06:45;;;;;;;23.17;3.90;;;;;;;23.29;53.32;100992.63;7305150;19;130567;-39
2022/03/01 10:09:18;;;;;;;17.17;3.20;;;;;;;23.30;52.60;100983.81;7310911;19;129406;-40
2022/03/01 10:11:44;;;;;;;20.85;3.88;;;;;;;23.23;52.83;100977.31;7312966;19;128923;-39
2022/03/01 10:14:11;;;;;;;27.10;3.95;;;;;;;23.34;52.58;100990.47;7309264;19;130877;-41
2022/03/01 10:16:39;;;;;;;27.50;4.55;;;;;;;23.35;53.23;100991.31;7311421;19;130586;-41
2022/03/01 10:19:09;;;;;;;21.45;3.40;;;;;;;23.35;53.01;100986.94;7312041;19;131077;-40
2022/03/01 10:21:34;;;;;;;21.40;3.33;;;;;;;23.39;52.72;100988.34;7311914;19;130285;-40
2022/03/01 10:23:59;;;;;;;24.83;3.58;;;;;;;23.42;52.87;100995.97;7309793;19;135642;-40
2022/03/01 10:26:30;;;;;;;23.48;3.50;;;;;;;23.39;52.83;100992.78;7309657;19;159075;-39
2022/03/01 10:28:58;;;;;;;20.17;3.25;;;;;;;23.38;53.28;100985.84;7313093;19;131170;-39
2022/03/01 10:31:29;;;;;;;22.48;3.70;;;;;;;23.31;53.78;100985.47;7313486;19;129100;-39
2022/03/01 10:34:10;;;;;;;17.50;2.78;;;;;;;23.28;53.60;100983.09;7309576;19;129568;-41
2022/03/01 10:36:41;;;;;;;29.55;4.88;;;;;;;23.24;53.89;100979.81;7310581;19;132020;-39
2022/03/01 10:39:10;;;;;;;22.40;3.35;;;;;;;23.19;53.75;100970.63;7311792;19;129665;-41
2022/03/01 10:41:38;;;;;;;18.98;3.28;;;;;;;23.14;53.58;100972.75;7312803;19;129121;-40
2022/03/01 10:44:05;;;;;;;21.58;3.40;;;;;;;23.12;54.19;100974.69;7308158;19;129820;-42
2022/03/01 10:46:38;;;;;;;20.25;3.05;;;;;;;23.12;54.13;100982.56;7310274;19;130904;-39
2022/03/01 10:49:08;;;;;;;22.23;3.45;;;;;;;23.14;54.29;100975.38;7312114;19;129293;-38
2022/03/01 10:51:35;;;;;;;25.67;4.47;;;;;;;23.14;54.53;100972.75;7311663;19;130020;-39
2022/03/01 10:54:00;;;;;;;;;;;;;;;23.07;54.07;100961.88;7310914;19;130221;-39
2022/03/01 10:56:35;;;;;;;24.00;3.42;;;;;;;23.14;54.18;100957.84;7310186;19;130691;-40
2022/03/01 10:59:02;;;;;;;23.90;4.25;;;;;;;23.17;53.75;100962.88;7310031;19;129147;-41
2022/03/01 11:01:31;;;;;;;39.50;5.95;;;;;;;23.20;53.74;100951.31;7308247;19;130028;-42
2022/03/01 11:03:56;;;;;;;17.73;2.72;;;;;;;23.21;53.83;100950.34;7308439;19;131228;-38